Time;durP1;ratioP1;P1;durP2;ratioP2;P2;SDS_P1;SDS_P2;PMS_P1;PMS_P2;Temp;Humidity;BMP_temperature;BMP_pressure;BME280_temperature;BME280_humidity;BME280_pressure;Samples;Min_cycle;Max_cycle;Signal;HPM_P1;HPM_P2
2023/03/09 00:00:10;;;;;;;1.63;0.70;;;;;;;10.14;100.00;96407.88;4966415;28;20260;-56
2023/03/09 00:02:38;;;;;;;2.27;0.97;;;;;;;10.09;100.00;96398.06;4965424;28;20700;-56
2023/03/09 00:05:07;;;;;;;1.70;0.70;;;;;;;10.00;100.00;96399.28;4966443;28;20220;-57
2023/03/09 00:07:34;;;;;;;1.83;0.60;;;;;;;9.91;100.00;96424.75;4965818;28;20254;-57
2023/03/09 00:10:00;;;;;;;1.10;0.60;;;;;;;10.02;100.00;96452.00;4966692;28;20243;-56
2023/03/09 00:12:27;;;;;;;2.97;0.90;;;;;;;10.07;100.00;96470.44;4966371;28;20750;-57
2023/03/09 00:14:54;;;;;;;1.60;0.80;;;;;;;9.97;100.00;96483.06;4969901;28;20244;-57
2023/03/09 00:17:21;;;;;;;3.20;1.00;;;;;;;10.04;100.00;96463.03;4964436;28;21052;-56
2023/03/09 00:19:48;;;;;;;1.80;0.73;;;;;;;9.93;100.00;96461.03;4965312;28;20241;-53
2023/03/09 00:22:16;;;;;;;1.30;0.70;;;;;;;9.88;100.00;96505.94;4965807;28;20239;-57
2023/03/09 00:24:46;;;;;;;1.83;0.90;;;;;;;9.77;100.00;96507.31;4987533;28;20306;-57
2023/03/09 00:27:13;;;;;;;2.73;0.90;;;;;;;9.75;100.00;96506.69;4965208;28;20223;-56
2023/03/09 00:29:40;;;;;;;2.17;0.80;;;;;;;9.78;100.00;96508.13;4969865;28;20258;-54
2023/03/09 00:32:07;;;;;;;3.80;0.60;;;;;;;9.80;100.00;96495.69;4966462;28;20232;-56
2023/03/09 00:34:33;;;;;;;1.07;0.60;;;;;;;9.71;100.00;96471.63;4962898;28;20232;-56
2023/03/09 00:37:00;;;;;;;2.37;0.50;;;;;;;9.59;100.00;96480.00;4983087;28;20247;-55
2023/03/09 00:39:28;;;;;;;2.43;0.70;;;;;;;9.50;100.00;96457.78;4964290;28;20232;-56
2023/03/09 00:41:56;;;;;;;1.47;0.50;;;;;;;9.43;100.00;96472.59;4970894;28;20236;-57
2023/03/09 00:44:22;;;;;;;1.37;0.50;;;;;;;9.41;100.00;96444.13;4964733;28;20298;-54
2023/03/09 00:46:49;;;;;;;2.67;0.40;;;;;;;9.42;100.00;96482.19;4971833;28;20236;-57
2023/03/09 00:49:16;;;;;;;1.80;0.40;;;;;;;9.39;100.00;96487.00;4970556;28;20235;-57
2023/03/09 00:51:43;;;;;;;1.13;0.43;;;;;;;9.44;100.00;96489.81;4962286;28;20244;-57
2023/03/09 00:54:11;;;;;;;1.13;0.40;;;;;;;9.57;100.00;96484.63;4975032;28;20314;-57
2023/03/09 00:56:40;;;;;;;1.30;0.30;;;;;;;9.59;100.00;96492.25;4986068;28;20239;-55
2023/03/09 00:59:06;;;;;;;0.50;0.30;;;;;;;9.49;100.00;96486.63;4967591;28;20218;-57
2023/03/09 01:01:33;;;;;;;0.47;0.30;;;;;;;9.48;100.00;96492.81;4977108;28;20240;-57
2023/03/09 01:04:01;;;;;;;0.70;0.40;;;;;;;9.43;100.00;96524.66;4967673;28;20703;-57
2023/03/09 01:06:27;;;;;;;1.07;0.30;;;;;;;9.64;100.00;96512.47;4972612;28;20777;-55
2023/03/09 01:08:54;;;;;;;0.80;0.30;;;;;;;9.79;99.82;96486.28;4965794;28;20705;-56
2023/03/09 01:11:21;;;;;;;0.70;0.40;;;;;;;9.77;100.00;96524.75;4965848;28;20233;-55
2023/03/09 01:13:53;;;;;;;0.90;0.30;;;;;;;9.70;100.00;96550.78;4966452;28;20248;-56
2023/03/09 01:16:20;;;;;;;1.87;0.33;;;;;;;9.71;100.00;96544.56;4966959;28;20562;-56
2023/03/09 01:18:48;;;;;;;0.80;0.20;;;;;;;9.65;100.00;96532.31;4971196;28;20257;-57
2023/03/09 01:21:14;;;;;;;0.97;0.40;;;;;;;9.57;100.00;96556.75;4970699;28;20242;-53
2023/03/09 01:23:41;;;;;;;1.47;0.40;;;;;;;9.51;100.00;96550.53;4977277;28;20668;-57
2023/03/09 01:26:08;;;;;;;0.73;0.30;;;;;;;9.44;100.00;96565.34;4983119;28;20794;-57
2023/03/09 01:28:37;;;;;;;2.00;0.30;;;;;;;9.44;100.00;96547.09;4980316;28;21993;-57
2023/03/09 01:31:09;;;;;;;0.90;0.20;;;;;;;9.40;100.00;96538.06;4982388;28;20240;-58
2023/03/09 01:33:35;;;;;;;0.50;0.20;;;;;;;9.32;100.00;96520.81;4980068;28;20231;-57
2023/03/09 01:36:05;;;;;;;0.63;0.20;;;;;;;9.25;100.00;96518.19;5000069;28;20232;-56
2023/03/09 01:38:31;;;;;;;1.80;0.20;;;;;;;9.17;100.00;96507.94;4980865;28;20752;-56
2023/03/09 01:40:59;;;;;;;1.00;0.40;;;;;;;9.16;100.00;96498.53;4996878;28;20323;-57
2023/03/09 01:43:34;;;;;;;0.93;0.20;;;;;;;9.14;100.00;96521.34;4976691;28;20235;-57
2023/03/09 01:46:37;;;;;;;0.57;0.27;;;;;;;9.11;100.00;96519.91;4978476;28;20231;-57
2023/03/09 01:49:13;;;;;;;0.40;0.10;;;;;;;9.12;100.00;96528.53;4967456;28;20239;-58
2023/03/09 01:51:46;;;;;;;0.60;0.20;;;;;;;9.18;100.00;96506.94;4988683;28;20247;-57
2023/03/09 01:54:18;;;;;;;0.97;0.20;;;;;;;9.14;100.00;96505.72;4963962;28;20247;-57
2023/03/09 01:56:47;;;;;;;0.73;0.40;;;;;;;9.12;100.00;96498.09;4979388;28;20241;-57
2023/03/09 01:59:15;;;;;;;1.37;0.20;;;;;;;9.09;100.00;96495.09;4983235;28;20702;-57
2023/03/09 02:01:45;;;;;;;0.97;0.30;;;;;;;9.02;100.00;96502.84;4979746;28;20235;-57
2023/03/09 02:04:19;;;;;;;1.17;0.20;;;;;;;9.07;100.00;96491.88;4982436;28;20228;-58
2023/03/09 02:06:46;;;;;;;0.50;0.10;;;;;;;9.14;99.27;96493.50;4972748;28;20234;-58
2023/03/09 02:09:21;;;;;;;0.67;0.20;;;;;;;9.24;98.82;96500.97;4982140;28;20275;-58
2023/03/09 02:11:48;;;;;;;0.53;0.20;;;;;;;9.36;97.35;96496.00;4979884;28;20232;-58
2023/03/09 02:14:16;;;;;;;0.90;0.20;;;;;;;9.34;99.43;96512.81;4983823;28;20232;-58
2023/03/09 02:16:44;;;;;;;1.70;0.30;;;;;;;9.43;98.31;96464.78;4981004;28;20245;-56
2023/03/09 02:19:22;;;;;;;1.87;0.40;;;;;;;9.46;99.42;96524.28;4983534;28;20591;-56
2023/03/09 02:21:52;;;;;;;0.83;0.30;;;;;;;9.56;98.02;96509.06;4982503;28;20233;-56
2023/03/09 02:24:24;;;;;;;1.37;0.30;;;;;;;9.59;98.60;96546.94;4982255;28;20224;-56
2023/03/09 02:26:55;;;;;;;1.97;0.37;;;;;;;9.59;99.95;96477.41;4999927;28;20231;-56
2023/03/09 02:29:24;;;;;;;0.23;0.20;;;;;;;9.60;98.63;96545.94;4981354;28;20227;-57
2023/03/09 02:31:51;;;;;;;2.20;0.40;;;;;;;9.54;99.70;96563.13;4983623;28;20235;-57
2023/03/09 02:34:17;;;;;;;1.43;0.50;;;;;;;9.28;100.00;96530.00;4983584;28;20692;-56
2023/03/09 02:36:48;;;;;;;0.90;0.50;;;;;;;9.05;100.00;96579.75;4982334;28;20726;-57
2023/03/09 02:39:22;;;;;;;1.33;0.40;;;;;;;8.96;100.00;96631.94;4983604;28;20697;-57
2023/03/09 02:41:50;;;;;;;1.83;0.63;;;;;;;8.86;100.00;96654.88;4972980;28;20321;-57
2023/03/09 02:44:20;;;;;;;0.83;0.40;;;;;;;8.75;100.00;96695.22;4979307;28;20675;-56
2023/03/09 02:46:48;;;;;;;2.53;0.50;;;;;;;8.60;100.00;96720.50;4984723;28;20281;-56
2023/03/09 02:49:14;;;;;;;3.27;0.60;;;;;;;8.44;100.00;96711.91;4985111;28;20317;-57
2023/03/09 02:51:42;;;;;;;1.70;0.30;;;;;;;8.32;100.00;96718.56;4997285;28;20280;-56
2023/03/09 02:54:09;;;;;;;0.83;0.30;;;;;;;8.19;100.00;96725.25;4984751;28;20234;-56
2023/03/09 02:56:36;;;;;;;2.27;0.40;;;;;;;8.06;100.00;96735.47;4984288;28;20254;-57
2023/03/09 02:59:03;;;;;;;2.17;0.33;;;;;;;8.01;100.00;96750.81;4986830;28;20727;-56
2023/03/09 03:01:31;;;;;;;1.23;0.33;;;;;;;7.89;100.00;96733.09;5000027;28;20238;-56
2023/03/09 03:03:59;;;;;;;1.63;0.40;;;;;;;7.86;100.00;96730.84;4986865;28;20241;-57
2023/03/09 03:06:26;;;;;;;2.47;0.30;;;;;;;7.80;100.00;96719.38;4983875;28;20236;-55
2023/03/09 03:08:53;;;;;;;1.13;0.40;;;;;;;7.79;100.00;96725.56;4986777;28;20233;-57
2023/03/09 03:11:20;;;;;;;1.63;0.80;;;;;;;7.72;100.00;96727.25;4998888;28;20237;-58
2023/03/09 03:13:47;;;;;;;0.83;0.37;;;;;;;7.80;100.00;96736.78;4987943;28;20237;-56
2023/03/09 03:16:14;;;;;;;0.80;0.40;;;;;;;7.81;100.00;96751.38;4988124;28;20645;-57
2023/03/09 03:18:41;;;;;;;1.83;0.83;;;;;;;7.77;100.00;96753.50;4982369;28;20226;-57
2023/03/09 03:21:09;;;;;;;5.33;0.70;;;;;;;7.79;100.00;96745.56;4985374;28;20245;-57
2023/03/09 03:23:40;;;;;;;2.27;0.40;;;;;;;7.78;100.00;96770.69;4982663;28;20229;-58
2023/03/09 03:26:08;;;;;;;1.63;0.43;;;;;;;7.77;100.00;96763.91;4983945;28;20230;-57
2023/03/09 03:28:37;;;;;;;1.57;0.37;;;;;;;8.00;100.00;96767.38;4982351;28;20309;-55
2023/03/09 03:31:10;;;;;;;1.53;0.40;;;;;;;7.91;100.00;96770.09;4984468;28;20301;-57
2023/03/09 03:33:37;;;;;;;2.50;0.60;;;;;;;7.91;100.00;96785.69;4998654;28;20605;-58
2023/03/09 03:36:05;;;;;;;2.37;0.43;;;;;;;8.05;100.00;96783.22;4986139;28;20570;-56
2023/03/09 03:38:33;;;;;;;6.03;0.80;;;;;;;8.09;100.00;96800.91;4974069;28;20256;-57
2023/03/09 03:41:00;;;;;;;3.73;0.50;;;;;;;8.06;100.00;96821.22;5002217;28;20252;-57
2023/03/09 03:43:28;;;;;;;3.13;0.60;;;;;;;7.98;100.00;96822.91;4983109;28;20233;-57
2023/03/09 03:45:56;;;;;;;1.40;0.50;;;;;;;7.99;100.00;96836.72;5001251;28;20663;-58
2023/03/09 03:48:24;;;;;;;3.23;0.60;;;;;;;8.12;100.00;96842.13;4999721;28;20599;-57
2023/03/09 03:50:51;;;;;;;1.70;0.73;;;;;;;8.09;100.00;96862.44;4986164;28;20304;-57
2023/03/09 03:53:20;;;;;;;3.50;0.80;;;;;;;8.16;100.00;96873.75;4999349;28;20235;-57
2023/03/09 03:55:48;;;;;;;3.77;0.73;;;;;;;8.22;100.00;96874.84;4985953;28;20234;-57
2023/03/09 03:58:14;;;;;;;6.53;1.30;;;;;;;8.30;100.00;96873.94;4987108;28;20234;-57
2023/03/09 04:00:42;;;;;;;3.33;0.63;;;;;;;8.28;100.00;96874.13;4982346;28;20302;-58
2023/03/09 04:03:12;;;;;;;4.53;0.83;;;;;;;8.41;100.00;96876.91;4985127;28;20227;-57
2023/03/09 04:05:43;;;;;;;5.07;0.97;;;;;;;8.32;100.00;96890.16;4981959;28;20239;-56
2023/03/09 04:08:11;;;;;;;8.63;1.48;;;;;;;8.46;100.00;96884.16;4981880;28;20442;-57
2023/03/09 04:10:39;;;;;;;7.53;1.10;;;;;;;8.42;100.00;96893.28;4981066;28;20237;-57
2023/03/09 04:13:07;;;;;;;6.43;1.00;;;;;;;8.39;100.00;96891.88;4983766;28;20213;-58
2023/03/09 04:15:35;;;;;;;5.83;1.03;;;;;;;8.50;100.00;96898.44;4982135;28;20231;-58
2023/03/09 04:18:02;;;;;;;6.47;1.33;;;;;;;8.45;100.00;96898.13;4984320;28;20238;-57
2023/03/09 04:20:31;;;;;;;6.00;1.00;;;;;;;8.51;100.00;96899.22;4997980;28;20689;-57
2023/03/09 04:22:58;;;;;;;5.07;1.63;;;;;;;8.48;100.00;96902.19;5000136;28;20716;-57
2023/03/09 04:25:26;;;;;;;3.30;1.00;;;;;;;8.52;100.00;96899.06;4997526;28;20316;-57
2023/03/09 04:27:54;;;;;;;13.43;1.40;;;;;;;8.54;100.00;96906.66;5000880;28;20238;-58
2023/03/09 04:33:06;;;;;;;6.80;1.90;;;;;;;8.55;100.00;96918.69;4967711;23;20232;-62
2023/03/09 04:35:33;;;;;;;10.23;1.50;;;;;;;8.63;100.00;96907.41;4949858;28;20330;-62
2023/03/09 04:38:02;;;;;;;6.53;1.13;;;;;;;8.64;100.00;96919.41;4951760;28;20228;-62
2023/03/09 04:40:32;;;;;;;8.87;1.70;;;;;;;8.64;100.00;96922.81;4953007;28;20227;-62
2023/03/09 04:42:59;;;;;;;10.67;1.40;;;;;;;8.65;99.93;96927.03;4957384;28;20254;-62
2023/03/09 04:45:26;;;;;;;9.30;1.50;;;;;;;8.62;99.36;96926.59;4951181;28;20220;-62
2023/03/09 04:47:54;;;;;;;10.47;1.33;;;;;;;8.60;100.00;96916.34;4963026;28;20696;-62
2023/03/09 04:50:23;;;;;;;8.60;1.20;;;;;;;8.66;97.76;96912.22;4965047;28;20694;-62
2023/03/09 04:52:57;;;;;;;6.13;1.00;;;;;;;8.75;95.98;96936.34;4946962;28;20230;-62
2023/03/09 04:55:25;;;;;;;8.13;1.83;;;;;;;8.74;96.79;96909.53;4950642;28;20327;-62
2023/03/09 04:57:55;;;;;;;5.70;1.17;;;;;;;8.75;96.54;96921.56;4954560;28;20233;-62
2023/03/09 05:00:24;;;;;;;4.33;1.07;;;;;;;8.82;96.58;96916.41;4943666;28;20628;-62
2023/03/09 05:02:51;;;;;;;6.27;1.20;;;;;;;8.91;95.47;96930.94;4957183;28;20253;-62
2023/03/09 05:05:19;;;;;;;10.07;1.80;;;;;;;8.93;94.15;96947.19;4950544;28;20584;-62
2023/03/09 05:07:48;;;;;;;9.20;1.00;;;;;;;9.01;94.38;96935.84;4952677;28;20573;-62
2023/03/09 05:10:15;;;;;;;6.13;1.30;;;;;;;9.16;91.70;96956.66;4945597;28;20256;-62
2023/03/09 05:12:45;;;;;;;6.03;1.20;;;;;;;9.11;92.69;96948.59;4950165;28;20242;-62
2023/03/09 05:15:15;;;;;;;7.03;1.37;;;;;;;9.10;94.11;96973.81;4955852;28;20229;-62
2023/03/09 05:17:42;;;;;;;3.97;1.17;;;;;;;9.14;94.11;96969.84;4950238;28;20634;-63
2023/03/09 05:20:12;;;;;;;9.67;1.53;;;;;;;9.14;93.21;96969.84;4952321;28;20286;-62
2023/03/09 05:22:44;;;;;;;8.63;1.30;;;;;;;9.11;94.64;96962.41;4954354;28;20231;-62
2023/03/09 05:25:13;;;;;;;7.20;1.07;;;;;;;9.10;92.47;96979.00;4954896;28;20238;-62
2023/03/09 05:27:40;;;;;;;9.03;1.60;;;;;;;9.15;92.54;96968.06;4946789;28;20314;-62
2023/03/09 05:30:09;;;;;;;9.17;1.30;;;;;;;9.30;90.15;96976.66;4971990;28;20227;-62
2023/03/09 05:32:39;;;;;;;9.30;1.80;;;;;;;9.38;89.61;96978.31;4947117;28;20239;-62
2023/03/09 05:35:07;;;;;;;7.67;1.27;;;;;;;9.36;90.14;96971.69;4974988;28;20227;-62
2023/03/09 05:37:34;;;;;;;6.27;0.93;;;;;;;9.25;93.46;96972.97;4952926;28;20692;-62
2023/03/09 05:40:06;;;;;;;5.83;1.30;;;;;;;9.23;92.15;96980.16;4944039;28;20231;-62
2023/03/09 05:42:35;;;;;;;11.13;1.40;;;;;;;9.15;94.11;96987.06;4951575;28;20583;-62
2023/03/09 05:45:04;;;;;;;7.57;1.20;;;;;;;9.32;89.85;97017.31;4945535;28;20269;-62
2023/03/09 05:47:31;;;;;;;7.17;1.20;;;;;;;9.39;90.54;97000.78;4946098;28;20231;-62
2023/03/09 05:49:57;;;;;;;7.57;2.00;;;;;;;9.41;89.90;96982.38;4955780;28;20965;-62
2023/03/09 05:52:24;;;;;;;12.20;2.53;;;;;;;9.45;89.64;96994.03;4970036;28;20244;-62
2023/03/09 05:54:51;;;;;;;5.80;1.50;;;;;;;9.39;89.30;97007.78;4969359;28;20230;-62
2023/03/09 05:57:18;;;;;;;15.73;2.30;;;;;;;9.44;87.29;97011.44;4971501;28;20222;-62
2023/03/09 05:59:49;;;;;;;12.83;2.17;;;;;;;9.59;85.89;97002.78;4952663;28;20249;-62
2023/03/09 06:02:17;;;;;;;7.10;1.13;;;;;;;9.59;85.99;97000.97;4952590;28;20228;-62
2023/03/09 06:04:50;;;;;;;10.53;3.57;;;;;;;9.54;88.72;97011.13;4969559;28;20797;-62
2023/03/09 06:07:16;;;;;;;5.50;1.87;;;;;;;9.48;88.52;97006.69;4950223;28;20709;-62
2023/03/09 06:09:47;;;;;;;5.20;2.00;;;;;;;9.40;90.85;96993.78;4953854;28;20251;-62
2023/03/09 06:12:19;;;;;;;7.37;1.50;;;;;;;9.40;90.01;97004.19;4947840;28;20253;-62
2023/03/09 06:14:52;;;;;;;9.20;1.73;;;;;;;9.39;87.41;97023.41;4971701;28;20225;-63
2023/03/09 06:17:20;;;;;;;9.03;1.70;;;;;;;9.45;87.21;97022.69;4963110;28;20247;-62
2023/03/09 06:19:48;;;;;;;6.83;1.17;;;;;;;9.53;85.28;97040.81;4969351;28;20317;-62
2023/03/09 06:22:15;;;;;;;10.83;2.43;;;;;;;9.58;85.34;97022.00;4967217;28;20235;-62
2023/03/09 06:24:42;;;;;;;9.07;3.20;;;;;;;9.58;87.22;97035.81;4969701;28;20296;-62
2023/03/09 06:27:13;;;;;;;10.30;2.20;;;;;;;9.56;85.34;97022.19;4956096;28;20224;-62
2023/03/09 06:29:40;;;;;;;12.83;2.37;;;;;;;9.54;87.44;97033.78;4970300;28;20693;-62
2023/03/09 06:32:08;;;;;;;6.13;1.70;;;;;;;9.52;87.44;97044.41;4972546;28;20584;-62
2023/03/09 06:34:37;;;;;;;8.00;2.10;;;;;;;9.44;87.18;97037.50;4967100;28;20306;-62
2023/03/09 06:37:06;;;;;;;10.60;3.43;;;;;;;9.47;88.50;97044.16;4972674;28;20698;-62
2023/03/09 06:39:33;;;;;;;9.20;1.47;;;;;;;9.48;86.49;97035.34;4958023;28;20426;-62
2023/03/09 06:42:01;;;;;;;8.80;1.47;;;;;;;9.53;87.15;97037.38;4972281;28;20242;-62
2023/03/09 06:44:45;;;;;;;8.77;1.80;;;;;;;9.59;85.26;97047.06;4973722;28;20570;-62
2023/03/09 06:47:13;;;;;;;10.00;2.23;;;;;;;9.59;85.55;97036.66;4959599;28;20323;-62
2023/03/09 06:49:43;;;;;;;11.00;1.50;;;;;;;9.54;86.51;97054.63;4976514;28;20643;-62
2023/03/09 06:52:13;;;;;;;7.60;1.70;;;;;;;9.57;86.22;97046.44;4959341;28;20245;-62
2023/03/09 06:54:39;;;;;;;11.73;1.50;;;;;;;9.53;87.79;97063.44;4972791;28;20238;-62
2023/03/09 06:57:12;;;;;;;7.70;1.37;;;;;;;9.62;86.25;97066.72;4958742;28;20260;-62
2023/03/09 06:59:40;;;;;;;10.30;1.90;;;;;;;9.63;85.67;97060.53;4970448;28;20285;-62
2023/03/09 07:02:11;;;;;;;7.22;1.40;;;;;;;9.64;86.20;97062.13;4957613;28;20453;-64
2023/03/09 07:04:40;;;;;;;10.17;2.10;;;;;;;9.68;85.85;97079.03;4943943;28;20316;-62
2023/03/09 07:07:08;;;;;;;5.00;1.40;;;;;;;9.66;86.31;97079.22;4978698;28;20720;-62
2023/03/09 07:09:35;;;;;;;10.40;1.57;;;;;;;9.66;84.77;97068.78;4971133;28;20252;-62
2023/03/09 07:12:02;;;;;;;6.17;1.40;;;;;;;9.77;84.92;97064.91;4976197;28;20247;-62
2023/03/09 07:14:28;;;;;;;12.73;1.80;;;;;;;9.70;86.46;97088.28;4955467;28;20280;-62
2023/03/09 07:16:57;;;;;;;8.33;1.23;;;;;;;9.73;85.89;97100.94;4975741;28;20247;-62
2023/03/09 07:19:24;;;;;;;5.30;1.20;;;;;;;9.72;86.17;97094.13;4969804;28;20283;-62
2023/03/09 07:21:53;;;;;;;9.50;1.73;;;;;;;9.68;86.39;97099.88;4973921;28;20225;-62
2023/03/09 07:24:21;;;;;;;5.30;2.10;;;;;;;9.73;86.46;97105.34;4954467;28;20336;-62
2023/03/09 07:26:48;;;;;;;10.70;1.53;;;;;;;9.66;86.93;97113.09;4971616;28;20238;-62
2023/03/09 07:29:15;;;;;;;11.10;1.70;;;;;;;9.73;86.50;97118.38;4973431;28;20230;-62
2023/03/09 07:31:42;;;;;;;6.47;1.20;;;;;;;9.78;86.63;97110.00;4972581;28;20555;-62
2023/03/09 07:34:09;;;;;;;11.83;1.47;;;;;;;9.88;83.26;97134.78;4972795;28;20327;-62
2023/03/09 07:36:35;;;;;;;10.33;3.90;;;;;;;9.81;85.29;97135.72;4976075;28;20322;-62
2023/03/09 07:39:03;;;;;;;6.57;1.40;;;;;;;9.86;84.26;97133.38;4972028;28;20236;-62
2023/03/09 07:41:30;;;;;;;9.47;2.00;;;;;;;9.85;83.04;97136.97;4972110;28;20286;-62
2023/03/09 07:43:59;;;;;;;7.17;1.27;;;;;;;9.86;84.68;97144.59;4978625;28;20238;-62
2023/03/09 07:46:26;;;;;;;6.40;1.20;;;;;;;9.87;83.12;97142.78;4945776;28;20238;-63
2023/03/09 07:48:53;;;;;;;5.63;1.43;;;;;;;9.86;84.00;97149.00;4957614;28;20659;-62
2023/03/09 07:51:21;;;;;;;8.90;2.00;;;;;;;9.78;86.49;97162.94;4970046;28;20592;-62
2023/03/09 07:53:48;;;;;;;3.80;1.40;;;;;;;9.70;87.14;97156.03;4971536;28;20294;-62
2023/03/09 07:56:16;;;;;;;6.47;1.30;;;;;;;9.77;85.05;97132.66;4975523;28;20233;-62
2023/03/09 07:58:43;;;;;;;6.00;1.37;;;;;;;9.74;85.61;97165.09;4969610;28;20236;-62
2023/03/09 08:01:14;;;;;;;6.03;1.43;;;;;;;9.77;85.49;97165.72;4971902;28;20265;-64
2023/03/09 08:03:41;;;;;;;5.30;1.13;;;;;;;9.70;85.94;97156.03;4971493;28;20761;-64
2023/03/09 08:06:09;;;;;;;5.33;1.80;;;;;;;9.68;85.55;97172.81;4976444;28;20321;-63
2023/03/09 08:08:37;;;;;;;8.03;1.40;;;;;;;9.65;85.75;97162.75;4968884;28;20721;-63
2023/03/09 08:11:04;;;;;;;9.17;1.27;;;;;;;9.67;85.92;97174.63;4972062;28;20231;-63
2023/03/09 08:13:33;;;;;;;4.83;1.20;;;;;;;9.74;85.23;97182.50;4971931;28;20248;-63
2023/03/09 08:16:01;;;;;;;5.33;1.30;;;;;;;9.77;85.61;97197.78;4973106;28;20239;-63
2023/03/09 08:18:28;;;;;;;10.57;2.33;;;;;;;9.78;85.58;97196.81;4970226;28;20313;-63
2023/03/09 08:20:55;;;;;;;6.73;1.23;;;;;;;9.74;86.80;97225.03;4970261;28;20234;-63
2023/03/09 08:23:22;;;;;;;7.13;1.20;;;;;;;9.79;86.06;97228.91;4970726;28;20223;-63
2023/03/09 08:25:53;;;;;;;9.87;1.30;;;;;;;9.57;88.72;97223.59;4973835;28;20239;-63
2023/03/09 08:28:20;;;;;;;8.40;1.27;;;;;;;9.44;93.09;97227.63;4969862;28;20239;-63
2023/03/09 08:30:49;;;;;;;8.57;1.70;;;;;;;9.30;95.14;97239.63;4971273;28;20231;-63
2023/03/09 08:33:16;;;;;;;8.90;1.40;;;;;;;9.37;92.98;97229.31;4966941;28;20223;-63
2023/03/09 08:35:42;;;;;;;8.70;1.30;;;;;;;9.50;93.12;97233.09;4965671;28;20246;-63
2023/03/09 08:38:09;;;;;;;5.70;1.00;;;;;;;9.67;93.65;97241.53;4970487;28;20222;-63
2023/03/09 08:40:37;;;;;;;6.87;1.87;;;;;;;9.76;91.17;97240.47;4967218;28;20585;-63
2023/03/09 08:43:03;;;;;;;4.17;0.90;;;;;;;9.84;90.93;97222.13;4972673;28;20240;-63
2023/03/09 08:45:30;;;;;;;11.23;2.10;;;;;;;9.94;89.36;97242.72;4967910;28;20286;-63
2023/03/09 08:47:58;;;;;;;8.80;1.10;;;;;;;9.94;89.11;97245.34;4968713;28;20227;-63
2023/03/09 08:50:24;;;;;;;5.73;1.30;;;;;;;9.95;87.26;97251.34;4968749;28;20274;-63
2023/03/09 08:52:51;;;;;;;5.07;0.70;;;;;;;9.90;85.68;97260.50;4970258;28;20582;-63
2023/03/09 08:55:18;;;;;;;7.53;2.00;;;;;;;9.90;85.94;97273.53;4968164;28;20884;-63
2023/03/09 08:57:45;;;;;;;6.03;0.83;;;;;;;9.98;83.59;97246.59;4971306;28;20244;-63
2023/03/09 09:00:12;;;;;;;8.07;2.83;;;;;;;9.84;87.71;97256.03;4972325;28;20301;-63
2023/03/09 09:02:39;;;;;;;6.50;1.17;;;;;;;9.84;86.23;97260.44;4969303;28;20244;-63
2023/03/09 09:05:09;;;;;;;11.47;1.70;;;;;;;9.85;86.96;97267.28;4971777;28;20231;-63
2023/03/09 09:07:35;;;;;;;7.27;2.80;;;;;;;9.85;87.46;97268.06;4969182;28;20345;-63
2023/03/09 09:10:02;;;;;;;4.80;1.07;;;;;;;9.80;87.17;97267.78;4973169;28;20246;-63
2023/03/09 09:12:32;;;;;;;7.07;0.90;;;;;;;9.90;85.13;97276.16;4966086;28;20682;-63
2023/03/09 09:14:58;;;;;;;4.53;1.03;;;;;;;9.90;86.56;97273.53;4976722;28;20658;-63
2023/03/09 09:17:25;;;;;;;4.30;1.13;;;;;;;9.81;87.74;97286.84;4971820;28;20244;-63
2023/03/09 09:19:52;;;;;;;6.63;0.80;;;;;;;9.89;87.25;97268.53;4975755;28;20699;-63
2023/03/09 09:22:20;;;;;;;6.13;0.73;;;;;;;9.93;86.59;97282.00;4968113;28;20239;-63
2023/03/09 09:24:47;;;;;;;5.87;0.93;;;;;;;9.83;88.26;97293.50;4971968;28;20306;-63
2023/03/09 09:27:13;;;;;;;3.87;1.10;;;;;;;9.90;86.58;97291.00;4972744;28;20227;-63
2023/03/09 09:29:40;;;;;;;4.47;0.93;;;;;;;9.90;88.93;97304.81;4968876;28;20279;-63
2023/03/09 09:32:08;;;;;;;9.90;1.33;;;;;;;9.92;87.96;97298.63;4971431;28;20323;-63
2023/03/09 09:34:35;;;;;;;3.40;0.83;;;;;;;9.92;89.43;97314.25;4968965;28;20788;-63
2023/03/09 09:37:05;;;;;;;6.40;1.00;;;;;;;9.73;90.31;97321.59;4971641;28;20246;-63
2023/03/09 09:39:33;;;;;;;7.10;1.00;;;;;;;9.77;91.60;97330.69;4968916;28;20318;-63
2023/03/09 09:42:03;;;;;;;5.17;1.90;;;;;;;9.71;90.76;97329.63;4969177;28;20243;-62
2023/03/09 09:44:34;;;;;;;8.40;1.50;;;;;;;9.74;90.82;97339.69;4967934;28;20627;-62
2023/03/09 09:47:04;;;;;;;7.00;1.20;;;;;;;9.75;91.79;97317.03;4973376;28;20290;-62
2023/03/09 09:49:34;;;;;;;5.07;0.80;;;;;;;9.83;89.00;97322.16;4967928;28;20247;-63
2023/03/09 09:52:11;;;;;;;5.37;0.90;;;;;;;10.06;87.75;97341.34;4969187;28;20319;-64
2023/03/09 09:54:47;;;;;;;4.40;0.90;;;;;;;10.31;86.39;97329.63;4945107;28;20262;-58
2023/03/09 09:57:18;;;;;;;9.87;1.50;;;;;;;10.34;86.96;97333.69;4949600;28;20652;-63
2023/03/09 09:59:53;;;;;;;5.67;1.60;;;;;;;10.23;87.72;97329.72;4948806;28;20246;-63
2023/03/09 10:02:36;;;;;;;7.83;3.03;;;;;;;10.30;87.22;97338.44;4969655;23;20232;-63
2023/03/09 10:05:07;;;;;;;6.70;1.50;;;;;;;10.22;87.13;97324.69;4980503;28;20291;-63
2023/03/09 10:07:38;;;;;;;4.93;1.00;;;;;;;10.38;85.00;97334.94;4986129;28;20239;-63
2023/03/09 10:10:14;;;;;;;6.07;1.33;;;;;;;10.49;85.30;97333.69;4988853;28;20878;-63
2023/03/09 10:12:41;;;;;;;6.70;1.13;;;;;;;10.48;84.26;97342.50;4984919;28;20242;-63
2023/03/09 10:15:14;;;;;;;6.90;2.57;;;;;;;10.66;84.76;97341.31;4987560;28;20707;-63
2023/03/09 10:17:46;;;;;;;13.77;1.60;;;;;;;10.46;85.48;97334.88;4985735;28;20244;-63
2023/03/09 10:20:18;;;;;;;6.13;1.80;;;;;;;10.64;84.74;97344.09;4988153;28;20239;-63
2023/03/09 10:22:48;;;;;;;7.20;1.20;;;;;;;10.61;85.68;97355.72;4985744;28;20301;-63
2023/03/09 10:25:21;;;;;;;7.30;1.30;;;;;;;10.60;86.89;97345.47;4988120;28;21006;-63
2023/03/09 10:27:55;;;;;;;7.50;1.07;;;;;;;10.58;85.11;97350.88;4985454;28;20219;-63
2023/03/09 10:30:33;;;;;;;6.37;1.77;;;;;;;10.59;88.08;97365.53;4985499;28;20681;-63
2023/03/09 10:33:06;;;;;;;7.83;2.93;;;;;;;10.62;88.98;97353.91;4988315;28;20371;-63
2023/03/09 10:35:39;;;;;;;4.70;1.13;;;;;;;10.69;88.37;97338.34;4985866;28;20284;-63
2023/03/09 10:38:05;;;;;;;6.70;1.07;;;;;;;10.61;88.54;97347.91;4988520;28;20239;-63
2023/03/09 10:40:42;;;;;;;6.20;1.33;;;;;;;10.32;87.39;97357.31;4985490;28;20306;-63
2023/03/09 10:43:18;;;;;;;5.83;1.30;;;;;;;10.33;87.53;97364.16;4988097;28;20285;-63
2023/03/09 10:45:44;;;;;;;6.23;1.80;;;;;;;10.46;87.92;97366.19;4985681;28;20293;-63
2023/03/09 10:48:20;;;;;;;6.77;1.40;;;;;;;10.42;86.25;97370.16;4988657;28;20233;-63
2023/03/09 10:50:57;;;;;;;7.57;1.47;;;;;;;10.50;85.59;97376.25;4985993;28;20752;-63
2023/03/09 10:53:29;;;;;;;8.73;1.17;;;;;;;10.43;84.77;97399.63;4983907;28;20229;-63
2023/03/09 10:56:07;;;;;;;5.83;1.20;;;;;;;10.52;82.73;97395.16;4987981;28;20261;-63
2023/03/09 10:58:35;;;;;;;10.47;4.80;;;;;;;10.49;84.48;97367.59;4985025;28;20227;-63
2023/03/09 11:01:03;;;;;;;6.80;1.73;;;;;;;10.54;84.73;97387.97;4987743;28;20232;-63
2023/03/09 11:03:36;;;;;;;5.30;1.37;;;;;;;10.54;85.23;97398.38;4984394;28;20241;-63
2023/03/09 11:06:24;;;;;;;6.27;1.40;;;;;;;10.54;82.34;97404.41;4987340;28;20331;-63
2023/03/09 11:09:00;;;;;;;6.10;1.23;;;;;;;10.38;84.58;97401.94;4984270;28;20233;-63
2023/03/09 11:11:29;;;;;;;7.70;1.90;;;;;;;10.40;88.13;97403.44;4983030;28;20230;-63
2023/03/09 11:13:56;;;;;;;8.53;1.70;;;;;;;10.27;89.34;97398.00;4987120;28;20233;-63
2023/03/09 11:16:27;;;;;;;11.17;2.57;;;;;;;10.29;89.93;97404.63;4984603;28;20314;-63
2023/03/09 11:19:13;;;;;;;7.07;1.07;;;;;;;10.43;89.69;97402.25;4987624;28;20235;-63
2023/03/09 11:21:51;;;;;;;8.50;1.60;;;;;;;10.32;89.73;97406.09;4984627;28;20703;-63
2023/03/09 11:24:18;;;;;;;7.10;1.57;;;;;;;10.52;90.27;97402.97;4986244;28;20314;-63
2023/03/09 11:26:54;;;;;;;6.77;1.70;;;;;;;10.66;90.01;97396.91;4985838;28;20318;-63
2023/03/09 11:29:29;;;;;;;5.30;1.40;;;;;;;10.76;88.40;97384.41;4983871;28;20235;-63
2023/03/09 11:31:57;;;;;;;8.27;1.77;;;;;;;10.78;87.46;97376.41;4987267;28;20668;-63
2023/03/09 11:34:28;;;;;;;8.93;1.50;;;;;;;10.86;86.71;97372.84;4984139;28;20236;-63
2023/03/09 11:37:00;;;;;;;6.97;1.13;;;;;;;11.18;85.01;97362.97;4987393;28;20234;-63
2023/03/09 11:39:32;;;;;;;10.60;1.80;;;;;;;11.21;83.63;97373.84;4984693;28;20239;-63
2023/03/09 11:42:04;;;;;;;6.00;1.47;;;;;;;11.66;82.71;97357.94;4987094;28;20239;-63
2023/03/09 11:44:35;;;;;;;7.10;1.40;;;;;;;12.07;80.78;97366.13;4983096;28;20262;-63
2023/03/09 11:47:05;;;;;;;5.80;1.10;;;;;;;12.38;77.62;97367.50;4985465;28;20221;-63